createdAt,value
2023-02-17T00:02:02.463Z,101275.13
2023-02-17T00:04:32.869Z,101278.16
2023-02-17T00:07:05.025Z,101199.41
2023-02-17T00:09:34.615Z,101286.06
2023-02-17T00:12:04.278Z,101274.31
2023-02-17T00:14:33.870Z,101272.53
2023-02-17T00:17:03.476Z,101272.75
2023-02-17T00:19:33.095Z,101264.53
2023-02-17T00:22:05.380Z,101242.75
2023-02-17T00:24:35.994Z,101271.44
2023-02-17T00:27:05.765Z,101275.88
2023-02-17T00:29:36.299Z,101220.19
2023-02-17T00:32:07.108Z,101200.94
2023-02-17T00:34:37.103Z,101258.00
2023-02-17T00:37:09.441Z,101252.91
2023-02-17T00:39:39.041Z,101267.75
2023-02-17T00:42:09.134Z,101265.28
2023-02-17T00:44:38.826Z,101274.28
2023-02-17T00:47:08.707Z,101255.94
2023-02-17T00:49:38.535Z,101273.19
2023-02-17T00:52:11.225Z,101234.19
2023-02-17T00:54:42.163Z,101244.91
2023-02-17T00:57:14.215Z,101248.34
2023-02-17T00:59:43.860Z,101252.56
2023-02-17T01:02:13.502Z,101264.09
2023-02-17T01:04:43.415Z,101255.47
2023-02-17T01:07:15.625Z,101259.06
2023-02-17T01:09:45.321Z,101254.81
2023-02-17T01:12:15.261Z,101227.09
2023-02-17T01:14:44.885Z,101253.25
2023-02-17T01:17:14.471Z,101234.31
2023-02-17T01:19:44.124Z,101239.56
2023-02-17T01:22:16.456Z,101251.72
2023-02-17T01:24:46.157Z,101214.56
2023-02-17T01:27:15.864Z,101228.50
2023-02-17T01:29:47.485Z,101242.44
2023-02-17T01:32:17.223Z,101232.34
2023-02-17T01:34:46.892Z,101211.56
2023-02-17T01:37:19.215Z,101185.03
2023-02-17T01:39:48.809Z,101204.50
2023-02-17T01:42:20.154Z,101160.72
2023-02-17T01:45:21.723Z,101143.78
2023-02-17T01:47:56.287Z,101206.06
2023-02-17T01:50:32.707Z,101187.16
2023-02-17T01:53:07.994Z,101173.16
2023-02-17T01:55:40.368Z,101200.44
2023-02-17T01:58:11.556Z,101196.75
2023-02-17T02:00:41.550Z,101191.94
2023-02-17T02:03:15.422Z,101133.25
2023-02-17T02:05:45.564Z,101186.09
2023-02-17T02:08:18.475Z,101180.19
2023-02-17T02:10:48.069Z,101169.53
2023-02-17T02:13:17.748Z,101168.06
2023-02-17T02:15:55.184Z,101186.25
2023-02-17T02:18:36.336Z,101155.31
2023-02-17T02:21:28.837Z,101171.81
2023-02-17T02:24:24.719Z,101157.22
2023-02-17T02:27:18.207Z,101171.63
2023-02-17T02:30:11.719Z,101132.91
2023-02-17T02:33:00.976Z,101183.75
2023-02-17T02:35:38.903Z,101164.03
2023-02-17T02:38:16.689Z,101156.59
2023-02-17T02:40:50.382Z,101137.00
2023-02-17T02:43:20.690Z,101155.84
2023-02-17T02:45:51.039Z,101098.34
2023-02-17T02:48:25.103Z,101150.41
2023-02-17T02:51:13.097Z,101120.09
2023-02-17T02:54:15.051Z,101118.31
2023-02-17T02:56:57.961Z,101085.78
2023-02-17T02:59:37.372Z,101116.22
2023-02-17T03:02:16.357Z,101094.34
2023-02-17T03:04:56.720Z,101054.69
2023-02-17T03:07:31.155Z,101084.16
2023-02-17T03:10:02.811Z,101104.75
2023-02-17T03:12:33.604Z,101090.09
2023-02-17T03:15:06.228Z,101106.69
2023-02-17T03:17:36.143Z,101072.13
2023-02-17T03:20:11.192Z,101108.72
2023-02-17T03:22:44.347Z,101103.06
2023-02-17T03:25:14.377Z,101109.25
2023-02-17T03:27:45.209Z,101118.94
2023-02-17T03:30:15.822Z,101117.22
2023-02-17T03:32:45.645Z,101111.31
2023-02-17T03:35:17.939Z,101096.78
2023-02-17T03:37:47.575Z,101099.03
2023-02-17T03:40:17.364Z,101093.81
2023-02-17T03:42:47.121Z,101081.41
2023-02-17T03:45:16.785Z,101051.28
2023-02-17T03:47:46.379Z,101094.28
2023-02-17T03:50:18.928Z,101089.25
2023-02-17T03:52:48.864Z,101087.72
2023-02-17T03:55:18.552Z,101088.38
2023-02-17T03:57:48.199Z,101099.22
2023-02-17T04:00:18.844Z,101080.28
2023-02-17T04:02:48.564Z,101081.63
2023-02-17T04:05:21.095Z,101070.50
2023-02-17T04:07:50.812Z,101072.25
2023-02-17T04:10:21.044Z,101062.69
2023-02-17T04:12:50.638Z,101074.66
2023-02-17T04:15:20.472Z,101073.63
2023-02-17T04:17:50.088Z,101080.44
2023-02-17T04:20:22.689Z,101057.38
2023-02-17T04:22:52.331Z,101089.97
2023-02-17T04:25:22.034Z,101047.56
2023-02-17T04:27:51.725Z,101082.38
2023-02-17T04:30:21.433Z,101091.88
2023-02-17T04:32:51.063Z,101058.31
2023-02-17T04:35:23.354Z,101049.09
2023-02-17T04:37:53.024Z,101057.75
2023-02-17T04:40:23.140Z,101055.84
2023-02-17T04:42:52.942Z,101042.09
2023-02-17T04:45:22.864Z,101049.94
2023-02-17T04:47:52.612Z,101047.25
2023-02-17T04:50:25.441Z,101048.31
2023-02-17T04:52:55.233Z,101050.09
2023-02-17T04:55:24.872Z,101012.03
2023-02-17T04:57:54.469Z,101040.63
2023-02-17T05:00:24.670Z,101040.09
2023-02-17T05:02:54.346Z,101016.47
2023-02-17T05:05:26.555Z,100988.06
2023-02-17T05:07:56.206Z,100972.28
2023-02-17T05:10:25.823Z,101022.47
2023-02-17T05:12:55.439Z,100977.56
2023-02-17T05:15:25.107Z,100998.53
2023-02-17T05:17:54.698Z,100978.69
2023-02-17T05:20:27.111Z,100970.22
2023-02-17T05:22:56.768Z,101001.50
2023-02-17T05:25:26.471Z,100999.88
2023-02-17T05:27:56.064Z,100978.44
2023-02-17T05:30:26.144Z,101000.69
2023-02-17T05:32:56.560Z,100959.91
2023-02-17T05:35:28.992Z,100963.44
2023-02-17T05:37:58.642Z,100989.22
2023-02-17T05:40:28.360Z,101006.63
2023-02-17T05:42:58.005Z,100991.84
2023-02-17T05:45:27.673Z,100998.16
2023-02-17T05:47:57.352Z,100997.56
2023-02-17T05:50:29.638Z,100985.84
2023-02-17T05:53:05.350Z,100970.97
2023-02-17T05:55:35.269Z,100961.75
2023-02-17T05:58:05.015Z,100978.13
2023-02-17T06:00:34.614Z,100967.81
2023-02-17T06:03:04.363Z,100950.34
2023-02-17T06:05:36.594Z,100983.84
2023-02-17T06:08:06.540Z,100978.84
2023-02-17T06:10:36.651Z,100967.84
2023-02-17T06:13:06.256Z,100969.75
2023-02-17T06:15:35.925Z,100950.00
2023-02-17T06:18:05.534Z,100965.53
2023-02-17T06:20:37.831Z,100964.41
2023-02-17T06:23:07.456Z,100963.53
2023-02-17T06:25:37.113Z,100969.59
2023-02-17T06:28:07.207Z,100974.78
2023-02-17T06:30:37.198Z,100961.25
2023-02-17T06:33:07.199Z,100960.16
2023-02-17T06:35:39.443Z,100941.34
2023-02-17T06:38:09.453Z,100980.75
2023-02-17T06:40:39.083Z,100979.00
2023-02-17T06:43:09.203Z,100968.63
2023-02-17T06:45:38.879Z,100971.25
2023-02-17T06:48:08.865Z,100968.09
2023-02-17T06:50:41.521Z,100960.34
2023-02-17T06:53:11.200Z,100944.88
2023-02-17T06:55:40.871Z,100976.72
2023-02-17T06:58:10.472Z,100978.34
2023-02-17T07:00:40.143Z,100975.03
2023-02-17T07:03:09.910Z,100981.56
2023-02-17T07:05:42.642Z,100976.63
2023-02-17T07:08:12.494Z,100953.75
2023-02-17T07:10:42.140Z,100943.53
2023-02-17T07:13:11.954Z,100952.06
2023-02-17T07:15:43.167Z,100938.94
2023-02-17T07:18:12.841Z,100941.66
2023-02-17T07:20:45.057Z,100951.94
2023-02-17T07:23:14.719Z,100922.66
2023-02-17T07:25:44.336Z,100920.94
2023-02-17T07:28:13.954Z,100918.28
2023-02-17T07:30:44.527Z,100929.34
2023-02-17T07:33:14.370Z,100911.59
2023-02-17T07:35:47.236Z,100926.41
2023-02-17T07:38:16.969Z,100906.59
2023-02-17T07:40:46.598Z,100924.94
2023-02-17T07:43:16.243Z,100889.63
2023-02-17T07:45:47.751Z,100919.88
2023-02-17T07:48:17.374Z,100861.16
2023-02-17T07:50:49.643Z,100924.63
2023-02-17T07:53:19.254Z,100932.63
2023-02-17T07:55:48.969Z,100923.91
2023-02-17T07:58:18.597Z,100916.16
2023-02-17T08:00:49.238Z,100918.03
2023-02-17T08:03:18.948Z,100935.13
2023-02-17T08:05:53.115Z,100925.03
2023-02-17T08:08:35.244Z,100919.00
2023-02-17T08:11:17.569Z,100918.09
2023-02-17T08:13:47.902Z,100926.56
2023-02-17T08:16:17.567Z,100926.69
2023-02-17T08:18:47.228Z,100932.75
2023-02-17T08:21:19.465Z,100918.41
2023-02-17T08:23:49.077Z,100912.19
2023-02-17T08:26:18.744Z,100908.19
2023-02-17T08:28:49.197Z,100903.75
2023-02-17T08:31:20.175Z,100870.19
2023-02-17T08:33:50.021Z,100886.34
2023-02-17T08:36:23.495Z,100897.88
2023-02-17T08:38:53.295Z,100894.41
2023-02-17T08:41:25.629Z,100886.75
2023-02-17T08:43:55.358Z,100843.47
2023-02-17T08:46:25.458Z,100889.38
2023-02-17T08:48:56.499Z,100875.75
2023-02-17T08:51:28.883Z,100880.75
2023-02-17T08:54:00.782Z,100865.28
2023-02-17T08:56:31.560Z,100865.44
2023-02-17T08:59:01.589Z,100862.97
2023-02-17T09:01:31.407Z,100863.59
2023-02-17T09:04:02.743Z,100855.00
2023-02-17T09:06:39.274Z,100854.00
2023-02-17T09:09:11.349Z,100884.25
2023-02-17T09:11:41.608Z,100898.72
2023-02-17T09:14:11.419Z,100887.63
2023-02-17T09:16:41.688Z,100873.13
2023-02-17T09:19:11.467Z,100876.50
2023-02-17T09:21:43.927Z,100880.94
2023-02-17T09:24:13.721Z,100897.13
2023-02-17T09:26:43.504Z,100902.38
2023-02-17T09:29:13.654Z,100894.63
2023-02-17T09:31:45.682Z,100907.56
2023-02-17T09:34:15.468Z,100894.66
2023-02-17T09:36:48.008Z,100886.19
2023-02-17T09:39:17.723Z,100901.25
2023-02-17T09:41:52.095Z,100910.03
2023-02-17T09:44:25.938Z,100896.91
2023-02-17T09:47:03.143Z,100881.50
2023-02-17T09:49:39.655Z,100894.00
2023-02-17T09:52:16.937Z,100907.72
2023-02-17T09:54:57.569Z,100912.88
2023-02-17T09:57:32.057Z,100909.47
2023-02-17T10:00:06.603Z,100893.06
2023-02-17T10:02:45.512Z,100894.03
2023-02-17T10:05:19.442Z,100877.63
2023-02-17T10:07:57.215Z,100873.63
2023-02-17T10:10:31.628Z,100892.41
2023-02-17T10:13:04.923Z,100887.31
2023-02-17T10:15:38.982Z,100864.09
2023-02-17T10:18:15.916Z,100824.53
2023-02-17T10:20:52.440Z,100892.72
2023-02-17T10:23:26.972Z,100865.38
2023-02-17T10:26:22.575Z,100877.28
2023-02-17T10:28:55.002Z,100868.88
2023-02-17T10:31:39.613Z,100850.84
2023-02-17T10:34:16.075Z,100863.13
2023-02-17T10:36:56.251Z,100835.69
2023-02-17T10:39:42.870Z,100861.63
2023-02-17T10:42:19.138Z,100806.19
2023-02-17T10:44:51.003Z,100825.34
2023-02-17T10:47:21.915Z,100831.53
2023-02-17T10:49:54.444Z,100804.66
2023-02-17T10:52:26.122Z,100802.88
2023-02-17T10:55:11.334Z,100809.13
2023-02-17T10:57:54.963Z,100793.66
2023-02-17T11:00:26.859Z,100810.97
2023-02-17T11:02:56.820Z,100811.84
2023-02-17T11:05:29.232Z,100826.53
2023-02-17T11:08:02.924Z,100809.56
2023-02-17T11:10:38.134Z,100789.72
2023-02-17T11:13:31.284Z,100791.81
2023-02-17T11:16:01.170Z,100774.81
2023-02-17T11:18:34.283Z,100769.09
2023-02-17T11:21:07.427Z,100798.19
2023-02-17T11:23:38.241Z,100775.75
2023-02-17T11:26:21.236Z,100771.59
2023-02-17T11:28:50.880Z,100815.28
2023-02-17T11:31:28.591Z,100751.66
2023-02-17T11:33:59.178Z,100738.81
2023-02-17T11:36:32.356Z,100774.13
2023-02-17T11:39:02.122Z,100776.53
2023-02-17T11:41:43.700Z,100778.47
2023-02-17T11:44:13.701Z,100740.50
2023-02-17T11:46:49.690Z,100782.00
2023-02-17T11:49:51.345Z,100761.47
2023-02-17T11:52:42.788Z,100776.06
2023-02-17T11:55:22.164Z,100726.41
2023-02-17T11:58:10.846Z,100750.47
2023-02-17T12:00:48.579Z,100742.84
2023-02-17T12:03:37.076Z,100743.78
2023-02-17T12:06:16.358Z,100778.91
2023-02-17T12:09:07.893Z,100791.78
2023-02-17T12:11:48.698Z,100741.06
2023-02-17T12:14:37.209Z,100802.94
2023-02-17T12:17:16.314Z,100787.66
2023-02-17T12:19:55.938Z,100791.97
2023-02-17T12:22:33.892Z,100800.38
2023-02-17T12:25:29.134Z,100795.97
2023-02-17T12:28:14.247Z,100807.06
2023-02-17T12:31:02.638Z,100819.00
2023-02-17T12:33:47.938Z,100822.38
2023-02-17T12:36:20.362Z,100765.81
2023-02-17T12:38:56.136Z,100811.41
2023-02-17T12:41:30.189Z,100807.84
2023-02-17T12:44:04.055Z,100795.94
2023-02-17T12:46:42.156Z,100804.56
2023-02-17T12:49:16.800Z,100774.56
2023-02-17T12:51:52.102Z,100786.66
2023-02-17T12:54:27.283Z,100812.41
2023-02-17T12:57:11.357Z,100799.53
2023-02-17T12:59:42.629Z,100791.72
2023-02-17T13:02:17.665Z,100795.97
2023-02-17T13:04:50.382Z,100777.84
2023-02-17T13:07:44.992Z,100789.09
2023-02-17T13:10:32.872Z,100795.91
2023-02-17T13:13:05.334Z,100802.72
2023-02-17T13:15:42.337Z,100820.72
2023-02-17T13:18:30.564Z,100817.22
2023-02-17T13:21:02.892Z,100831.59
2023-02-17T13:23:37.589Z,100816.53
2023-02-17T13:26:29.086Z,100865.31
2023-02-17T13:29:14.259Z,100859.47
2023-02-17T13:31:49.597Z,100876.53
2023-02-17T13:34:34.926Z,100877.34
2023-02-17T13:37:17.591Z,100861.75
2023-02-17T13:39:48.275Z,100865.78
2023-02-17T13:42:37.465Z,100865.66
2023-02-17T13:45:20.935Z,100893.19
2023-02-17T13:47:53.143Z,100870.75
2023-02-17T13:50:37.618Z,100875.78
2023-02-17T13:53:24.227Z,100862.81
2023-02-17T13:55:54.689Z,100855.81
2023-02-17T13:58:25.452Z,100888.56
2023-02-17T14:00:56.046Z,100875.66
2023-02-17T14:03:27.811Z,100885.84
2023-02-17T14:06:02.066Z,100880.78
2023-02-17T14:08:38.594Z,100884.03
2023-02-17T14:11:12.134Z,100900.28
2023-02-17T14:13:44.633Z,100899.41
2023-02-17T14:16:30.183Z,100887.56
2023-02-17T14:19:07.954Z,100906.25
2023-02-17T14:21:41.843Z,100851.03
2023-02-17T14:24:27.141Z,100881.28
2023-02-17T14:27:00.997Z,100876.47
2023-02-17T14:29:42.419Z,100896.94
2023-02-17T14:32:30.773Z,100889.16
2023-02-17T14:35:11.872Z,100883.25
2023-02-17T14:37:45.203Z,100899.66
2023-02-17T14:40:20.567Z,100866.84
2023-02-17T14:42:50.748Z,100905.56
2023-02-17T14:45:21.301Z,100909.75
2023-02-17T14:47:51.041Z,100887.38
2023-02-17T14:50:20.908Z,100905.47
2023-02-17T14:52:54.228Z,100897.75
2023-02-17T14:55:34.228Z,100893.50
2023-02-17T14:58:04.283Z,100890.09
2023-02-17T15:00:33.977Z,100902.84
2023-02-17T15:03:03.694Z,100907.09
2023-02-17T15:05:33.506Z,100915.69
2023-02-17T15:08:06.001Z,100861.63
2023-02-17T15:10:37.547Z,100903.94
2023-02-17T15:13:07.204Z,100921.06
2023-02-17T15:15:39.314Z,100920.31
2023-02-17T15:18:08.975Z,100919.31
2023-02-17T15:20:39.408Z,100915.94
2023-02-17T15:23:15.323Z,100921.72
2023-02-17T15:25:45.836Z,100901.84
2023-02-17T15:28:17.184Z,100894.22
2023-02-17T15:30:51.449Z,100927.78
2023-02-17T15:33:22.925Z,100938.00
2023-02-17T15:35:55.618Z,100911.16
2023-02-17T15:38:27.965Z,100946.28
2023-02-17T15:40:58.986Z,100948.03
2023-02-17T15:46:14.556Z,100950.69
2023-02-17T15:48:45.647Z,100938.56
2023-02-17T15:51:19.279Z,100909.38
2023-02-17T15:53:51.920Z,100957.53
2023-02-17T15:56:24.719Z,100944.72
2023-02-17T15:58:55.874Z,100950.66
2023-02-17T16:01:30.735Z,100936.06
2023-02-17T16:04:01.362Z,100947.97
2023-02-17T16:06:32.020Z,100971.19
2023-02-17T16:09:04.246Z,100960.00
2023-02-17T16:11:35.282Z,100935.38
2023-02-17T16:14:05.021Z,100967.25
2023-02-17T16:16:36.303Z,100970.69
2023-02-17T16:19:05.956Z,100988.31
2023-02-17T16:21:35.675Z,100955.59
2023-02-17T16:24:08.340Z,100972.97
2023-02-17T16:26:39.975Z,100946.16
2023-02-17T16:29:17.071Z,101002.88
2023-02-17T16:31:47.147Z,100995.84
2023-02-17T16:34:18.315Z,100981.22
2023-02-17T16:36:48.054Z,100953.75
2023-02-17T16:39:22.647Z,101004.66
2023-02-17T16:41:52.385Z,101006.06
2023-02-17T16:44:24.090Z,101004.47
2023-02-17T16:46:55.654Z,100998.06
2023-02-17T16:49:32.644Z,101014.63
2023-02-17T16:52:02.714Z,101024.19
2023-02-17T16:54:35.867Z,101019.78
2023-02-17T16:57:05.626Z,101032.69
2023-02-17T16:59:35.203Z,101016.56
2023-02-17T17:02:04.910Z,101039.63
2023-02-17T17:04:34.593Z,101038.63
2023-02-17T17:07:04.552Z,101043.00
2023-02-17T17:09:36.750Z,101029.38
2023-02-17T17:12:06.783Z,101034.34
2023-02-17T17:14:36.496Z,101053.97
2023-02-17T17:17:06.178Z,101045.56
2023-02-17T17:19:35.787Z,101051.47
2023-02-17T17:22:05.394Z,101050.59
2023-02-17T17:24:37.741Z,101059.22
2023-02-17T17:27:07.374Z,101059.94
2023-02-17T17:29:37.020Z,101054.53
2023-02-17T17:32:06.944Z,101075.91
2023-02-17T17:34:36.677Z,101037.59
2023-02-17T17:37:06.325Z,101136.19
2023-02-17T17:39:39.659Z,101151.41
2023-02-17T17:42:09.286Z,101112.06
2023-02-17T17:44:38.894Z,101142.44
2023-02-17T17:47:09.203Z,101121.44
2023-02-17T17:49:38.898Z,101166.03
2023-02-17T17:52:08.528Z,101173.63
2023-02-17T17:54:40.735Z,101152.88
2023-02-17T17:57:10.597Z,101177.81
2023-02-17T17:59:40.223Z,101184.72
2023-02-17T18:02:10.108Z,101178.47
2023-02-17T18:04:39.873Z,101163.38
2023-02-17T18:07:09.749Z,101204.16
2023-02-17T18:09:42.411Z,101200.72
2023-02-17T18:12:14.399Z,101189.75
2023-02-17T18:14:46.698Z,101209.00
2023-02-17T18:17:18.296Z,101203.34
2023-02-17T18:19:49.756Z,101235.09
2023-02-17T18:22:19.430Z,101210.31
2023-02-17T18:24:51.691Z,101229.97
2023-02-17T18:27:22.893Z,101220.09
2023-02-17T18:29:52.922Z,101241.81
2023-02-17T18:32:22.611Z,101272.44
2023-02-17T18:34:52.329Z,101276.47
2023-02-17T18:37:21.999Z,101274.59
2023-02-17T18:39:54.260Z,101282.03
2023-02-17T18:42:23.940Z,101267.25
2023-02-17T18:44:53.731Z,101289.84
2023-02-17T18:47:23.421Z,101251.59
2023-02-17T18:49:54.448Z,101296.38
2023-02-17T18:52:24.095Z,101260.88
2023-02-17T18:54:56.263Z,101310.59
2023-02-17T18:57:25.996Z,101307.00
2023-02-17T18:59:55.701Z,101316.56
2023-02-17T19:02:26.039Z,101316.31
2023-02-17T19:04:56.290Z,101324.78
2023-02-17T19:07:26.393Z,101322.84
2023-02-17T19:09:58.749Z,101321.91
2023-02-17T19:12:28.748Z,101316.41
2023-02-17T19:14:58.414Z,101298.13
2023-02-17T19:17:28.495Z,101325.75
2023-02-17T19:19:58.234Z,101323.97
2023-02-17T19:22:27.871Z,101285.75
2023-02-17T19:25:00.284Z,101341.75
2023-02-17T19:27:31.234Z,101338.97
2023-02-17T19:30:00.902Z,101349.81
2023-02-17T19:32:30.780Z,101340.88
2023-02-17T19:35:00.396Z,101323.25
2023-02-17T19:37:30.275Z,101347.72
2023-02-17T19:40:02.514Z,101345.09
2023-02-17T19:42:32.241Z,101348.66
2023-02-17T19:45:01.960Z,101344.81
2023-02-17T19:47:32.388Z,101342.31
2023-02-17T19:50:02.029Z,101348.41
2023-02-17T19:52:31.645Z,101358.63
2023-02-17T19:55:03.986Z,101348.28
2023-02-17T19:57:33.585Z,101316.94
2023-02-17T20:00:04.311Z,101338.88
2023-02-17T20:02:36.048Z,101341.16
2023-02-17T20:05:06.043Z,101358.06
2023-02-17T20:07:35.967Z,101363.06
2023-02-17T20:10:11.909Z,101363.78
2023-02-17T20:12:41.644Z,101348.38
2023-02-17T20:15:12.302Z,101344.94
2023-02-17T20:17:41.948Z,101361.09
2023-02-17T20:20:13.726Z,101367.88
2023-02-17T20:22:43.425Z,101380.88
2023-02-17T20:25:15.675Z,101373.75
2023-02-17T20:27:45.317Z,101379.03
2023-02-17T20:30:15.658Z,101360.00
2023-02-17T20:32:45.279Z,101369.22
2023-02-17T20:35:16.604Z,101366.03
2023-02-17T20:37:46.199Z,101362.63
2023-02-17T20:40:18.702Z,101377.97
2023-02-17T20:42:48.349Z,101371.94
2023-02-17T20:45:18.223Z,101375.97
2023-02-17T20:47:47.840Z,101386.06
2023-02-17T20:50:18.491Z,101376.63
2023-02-17T20:52:48.625Z,101386.00
2023-02-17T20:55:21.807Z,101388.53
2023-02-17T20:57:51.682Z,101395.25
2023-02-17T21:00:24.240Z,101329.50
2023-02-17T21:02:54.123Z,101388.16
2023-02-17T21:05:25.018Z,101395.63
2023-02-17T21:07:54.615Z,101382.88
2023-02-17T21:10:29.322Z,101381.03
2023-02-17T21:12:59.214Z,101390.34
2023-02-17T21:15:30.429Z,101382.47
2023-02-17T21:18:00.138Z,101403.19
2023-02-17T21:20:29.932Z,101371.75
2023-02-17T21:23:00.632Z,101394.16
2023-02-17T21:25:33.201Z,101393.38
2023-02-17T21:28:02.990Z,101413.09
2023-02-17T21:30:32.886Z,101407.13
2023-02-17T21:33:02.704Z,101413.66
2023-02-17T21:35:32.399Z,101401.41
2023-02-17T21:38:02.000Z,101413.47
2023-02-17T21:40:34.352Z,101424.63
2023-02-17T21:43:16.471Z,101413.91
2023-02-17T21:45:47.331Z,101419.91
2023-02-17T21:48:16.997Z,101435.75
2023-02-17T21:50:46.756Z,101426.22
2023-02-17T21:53:16.467Z,101439.81
2023-02-17T21:55:49.048Z,101441.63
2023-02-17T21:58:18.767Z,101436.56
2023-02-17T22:00:50.893Z,101429.97
2023-02-17T22:03:20.638Z,101430.78
2023-02-17T22:05:50.344Z,101437.69
2023-02-17T22:08:20.021Z,101449.09
2023-02-17T22:10:52.466Z,101449.88
2023-02-17T22:13:22.182Z,101445.97
2023-02-17T22:15:59.678Z,101458.41
2023-02-17T22:18:29.272Z,101437.44
2023-02-17T22:20:58.918Z,101456.91
2023-02-17T22:23:28.689Z,101453.34
2023-02-17T22:26:01.074Z,101439.09
2023-02-17T22:28:30.702Z,101433.75
2023-02-17T22:31:00.382Z,101470.53
2023-02-17T22:33:30.064Z,101469.56
2023-02-17T22:36:00.873Z,101444.81
2023-02-17T22:38:30.913Z,101446.41
2023-02-17T22:41:03.474Z,101469.50
2023-02-17T22:43:33.095Z,101472.28
2023-02-17T22:46:03.769Z,101397.84
2023-02-17T22:48:34.955Z,101456.91
2023-02-17T22:51:07.631Z,101419.38
2023-02-17T22:53:38.060Z,101455.16
2023-02-17T22:56:11.233Z,101436.94
2023-02-17T22:58:41.466Z,101467.09
2023-02-17T23:01:13.348Z,101408.78
2023-02-17T23:04:04.077Z,101461.06
2023-02-17T23:06:35.823Z,101401.16
2023-02-17T23:09:07.526Z,101400.13
2023-02-17T23:11:58.327Z,101451.38
2023-02-17T23:14:33.721Z,101424.47
2023-02-17T23:17:06.846Z,101438.50
2023-02-17T23:19:36.971Z,101450.94
2023-02-17T23:22:09.966Z,101443.75
2023-02-17T23:24:39.715Z,101447.03
2023-02-17T23:27:11.979Z,101442.53
2023-02-17T23:29:43.345Z,101385.47
2023-02-17T23:32:13.112Z,101453.59
2023-02-17T23:34:43.024Z,101461.94
2023-02-17T23:37:12.830Z,101371.00
2023-02-17T23:39:42.437Z,101447.19
2023-02-17T23:42:14.757Z,101458.03
2023-02-17T23:44:44.340Z,101451.31
2023-02-17T23:47:14.040Z,101410.69
2023-02-17T23:49:43.834Z,101427.19
2023-02-17T23:52:13.510Z,101406.41
2023-02-17T23:54:44.433Z,101447.44
2023-02-17T23:57:16.730Z,101398.09
2023-02-17T23:59:46.444Z,101388.38
